Kary, South Dakota
Current Conditions -  °F | °C
As of 4:53 AM on Friday 28 Nov 2014 (Local Time) from KPIR Reporting Station
Clear Clear  
Wind Chill: 19°   Ceiling: Unl
Heat Index: 19°   Visibility: 10mi
Dew Point: 15°   Wind: 3mph
Humidity: 85%   Direction: 90°E
Pressure: 29.75"   Gusts: NA
Location:  43.9557°N, 100.703°W
Report Text: KPIR 281053Z AUTO 09003KT 10SM CLR M07/M09 A2975 RMK AO2 SLP100 T10721094
Loading
Personal Weather Stations






























Interactive Weather Map New forecast layout! Learn more

10-Day Weather Forecast

Advertisements
Track Severe Weather on mobile